Chula, GA

9:55 AM EST on December 27, 2014 (GMT -0500)
Forest Lakes | Change Station
CLOSE
Current Station
Personal Weather Station
Location: Tifton, GA
Elevation: 329 ft
Nearby Weather Stations

Elev 329 ft 31.50 °N, 83.44 °W | Updated 21 seconds ago

Clear
Clear
53.0 °F
Feels Like 53.0 °F
N
5.0
Wind Variable Wind from ESE
Gusts 8.0 mph

Today
High -- | Low -- °F
--% Chance of Precip.
Yesterday
High -- | Low -- °F
Precip. -- in
7:32 AM 5:38 PM
Waxing Crescent, 37% visible
Pressure 30.32 in
Visibility 10.0 miles
Clouds Clear
Dew Point 49 °F
Humidity 86%
Rainfall 0.00 in
Snow Depth Not available.
UV 2 out of 12
Pollen 1.10 out of 12
Air Quality Not available.
Flu Activity Not available.
METAR KTMA 271435Z AUTO 09004KT 10SM CLR 11/07 A3032 RMK AO2 T01100074

More Conditions Fewer Conditions

Pressure 30.32 in
Visibility 10.0 miles
Clouds Clear
Dew Point 49 °F
Humidity 86%
Rainfall 0.00 in
Snow Depth Not available.
UV 2 out of 12
Pollen 1.10 out of 12
Air Quality Not available.
Flu Activity Not available.
METAR KTMA 271435Z AUTO 09004KT 10SM CLR 11/07 A3032 RMK AO2 T01100074

More Conditions Fewer Conditions

10-Day Weather Forecast

Almanac

Astronomy

Dec. 27, 2014 Rise Set
Actual Time
Civil Twilight
Nautical Twilight
Astronomical Twilight
Moon
Length of Visible Light
Length of Day
Tomorrow will be .
, % of the Moon is Illuminated

Today's Extremes

State Highs State Lows

Community

WunderPhotos

Upload Photos

1,780,918 photos uploaded!

WunderBlogs® & News

Nearby

Air Quality

  Air Quality AQ Index Pollutant
Not available.

Snow Depth

Station Depth Elevation

Earthquake Activity

City Distance Mag. Time & Date
Minimum magnitude displayed is 2.5.

Coastal Water Temperatures

Place Temperature

Nearby Weather Stations